sensor_id;sensor_type;location;lat;lon;timestamp;temperature;humidity
45012;DHT22;63444;48.148;11.542;2022-11-13T00:01:59;7.40;99.90
45012;DHT22;63444;48.148;11.542;2022-11-13T00:04:25;7.40;99.90
45012;DHT22;63444;48.148;11.542;2022-11-13T00:06:50;7.50;99.90
45012;DHT22;63444;48.148;11.542;2022-11-13T00:09:16;7.40;99.90
45012;DHT22;63444;48.148;11.542;2022-11-13T00:11:41;7.30;99.90
45012;DHT22;63444;48.148;11.542;2022-11-13T00:14:07;7.30;99.90
45012;DHT22;63444;48.148;11.542;2022-11-13T00:16:32;7.30;99.90
45012;DHT22;63444;48.148;11.542;2022-11-13T00:18:58;7.30;99.90
45012;DHT22;63444;48.148;11.542;2022-11-13T00:21:24;7.20;99.90
45012;DHT22;63444;48.148;11.542;2022-11-13T00:23:52;7.20;99.90
45012;DHT22;63444;48.148;11.542;2022-11-13T00:26:24;7.20;99.90
45012;DHT22;63444;48.148;11.542;2022-11-13T00:28:54;7.10;99.90
45012;DHT22;63444;48.148;11.542;2022-11-13T00:31:21;7.20;99.90
45012;DHT22;63444;48.148;11.542;2022-11-13T00:33:47;7.20;99.90
45012;DHT22;63444;48.148;11.542;2022-11-13T00:36:18;7.20;99.90
45012;DHT22;63444;48.148;11.542;2022-11-13T00:38:44;7.20;99.90
45012;DHT22;63444;48.148;11.542;2022-11-13T00:41:10;7.20;99.90
45012;DHT22;63444;48.148;11.542;2022-11-13T00:43:36;7.20;99.90
45012;DHT22;63444;48.148;11.542;2022-11-13T00:46:02;7.10;99.90
45012;DHT22;63444;48.148;11.542;2022-11-13T00:48:27;7.10;99.90
45012;DHT22;63444;48.148;11.542;2022-11-13T00:50:53;7.00;99.90
45012;DHT22;63444;48.148;11.542;2022-11-13T00:53:19;6.90;99.90
45012;DHT22;63444;48.148;11.542;2022-11-13T00:55:45;6.90;99.90
45012;DHT22;63444;48.148;11.542;2022-11-13T00:58:14;6.80;99.90
45012;DHT22;63444;48.148;11.542;2022-11-13T01:00:42;6.80;99.90
45012;DHT22;63444;48.148;11.542;2022-11-13T01:03:08;6.70;99.90
45012;DHT22;63444;48.148;11.542;2022-11-13T01:05:38;6.70;99.90
45012;DHT22;63444;48.148;11.542;2022-11-13T01:08:05;6.80;99.90
45012;DHT22;63444;48.148;11.542;2022-11-13T01:10:38;6.80;99.90
45012;DHT22;63444;48.148;11.542;2022-11-13T01:13:03;6.70;99.90
45012;DHT22;63444;48.148;11.542;2022-11-13T01:15:29;6.70;99.90
45012;DHT22;63444;48.148;11.542;2022-11-13T01:17:55;6.70;99.90
45012;DHT22;63444;48.148;11.542;2022-11-13T01:20:22;6.70;99.90
45012;DHT22;63444;48.148;11.542;2022-11-13T01:22:48;6.70;99.90
45012;DHT22;63444;48.148;11.542;2022-11-13T01:25:14;6.70;99.90
45012;DHT22;63444;48.148;11.542;2022-11-13T01:27:40;6.70;99.90
45012;DHT22;63444;48.148;11.542;2022-11-13T01:30:06;6.70;99.90
45012;DHT22;63444;48.148;11.542;2022-11-13T01:32:32;6.60;99.90
45012;DHT22;63444;48.148;11.542;2022-11-13T01:34:58;6.60;99.90
45012;DHT22;63444;48.148;11.542;2022-11-13T01:37:23;6.60;99.90
45012;DHT22;63444;48.148;11.542;2022-11-13T01:39:49;6.60;99.90
45012;DHT22;63444;48.148;11.542;2022-11-13T01:42:15;6.50;99.90
45012;DHT22;63444;48.148;11.542;2022-11-13T01:44:56;6.60;99.90
45012;DHT22;63444;48.148;11.542;2022-11-13T01:47:24;6.60;99.90
45012;DHT22;63444;48.148;11.542;2022-11-13T01:49:53;6.60;99.90
45012;DHT22;63444;48.148;11.542;2022-11-13T01:54:57;6.60;99.90
45012;DHT22;63444;48.148;11.542;2022-11-13T01:57:24;6.50;99.90
45012;DHT22;63444;48.148;11.542;2022-11-13T01:59:53;6.50;99.90
45012;DHT22;63444;48.148;11.542;2022-11-13T02:02:19;6.50;99.90
45012;DHT22;63444;48.148;11.542;2022-11-13T02:04:45;6.50;99.90
45012;DHT22;63444;48.148;11.542;2022-11-13T02:07:16;6.40;99.90
45012;DHT22;63444;48.148;11.542;2022-11-13T02:09:46;6.40;99.90
45012;DHT22;63444;48.148;11.542;2022-11-13T02:12:16;6.40;99.90
45012;DHT22;63444;48.148;11.542;2022-11-13T02:14:45;6.40;99.90
45012;DHT22;63444;48.148;11.542;2022-11-13T02:17:18;6.30;99.90
45012;DHT22;63444;48.148;11.542;2022-11-13T02:19:52;6.20;99.90
45012;DHT22;63444;48.148;11.542;2022-11-13T02:25:11;6.20;99.90
45012;DHT22;63444;48.148;11.542;2022-11-13T02:27:45;6.20;99.90
45012;DHT22;63444;48.148;11.542;2022-11-13T02:32:46;6.20;99.90
45012;DHT22;63444;48.148;11.542;2022-11-13T02:35:15;6.20;99.90
45012;DHT22;63444;48.148;11.542;2022-11-13T02:37:41;6.20;99.90
45012;DHT22;63444;48.148;11.542;2022-11-13T02:40:07;6.30;99.90
45012;DHT22;63444;48.148;11.542;2022-11-13T02:42:34;6.30;99.90
45012;DHT22;63444;48.148;11.542;2022-11-13T02:45:00;6.30;99.90
45012;DHT22;63444;48.148;11.542;2022-11-13T02:47:27;6.30;99.90
45012;DHT22;63444;48.148;11.542;2022-11-13T02:49:52;6.30;99.90
45012;DHT22;63444;48.148;11.542;2022-11-13T02:52:18;6.30;99.90
45012;DHT22;63444;48.148;11.542;2022-11-13T02:54:44;6.30;99.90
45012;DHT22;63444;48.148;11.542;2022-11-13T02:57:09;6.20;99.90
45012;DHT22;63444;48.148;11.542;2022-11-13T02:59:35;6.20;99.90
45012;DHT22;63444;48.148;11.542;2022-11-13T03:02:00;6.20;99.90
45012;DHT22;63444;48.148;11.542;2022-11-13T03:04:26;6.30;99.90
45012;DHT22;63444;48.148;11.542;2022-11-13T03:06:52;6.30;99.90
45012;DHT22;63444;48.148;11.542;2022-11-13T03:09:17;6.30;99.90
45012;DHT22;63444;48.148;11.542;2022-11-13T03:11:43;6.30;99.90
45012;DHT22;63444;48.148;11.542;2022-11-13T03:14:08;6.20;99.90
45012;DHT22;63444;48.148;11.542;2022-11-13T03:16:34;6.30;99.90
45012;DHT22;63444;48.148;11.542;2022-11-13T03:19:01;6.30;99.90
45012;DHT22;63444;48.148;11.542;2022-11-13T03:21:27;6.20;99.90
45012;DHT22;63444;48.148;11.542;2022-11-13T03:23:56;6.30;99.90
45012;DHT22;63444;48.148;11.542;2022-11-13T03:26:22;6.30;99.90
45012;DHT22;63444;48.148;11.542;2022-11-13T03:28:48;6.20;99.90
45012;DHT22;63444;48.148;11.542;2022-11-13T03:31:14;6.20;99.90
45012;DHT22;63444;48.148;11.542;2022-11-13T03:33:40;6.20;99.90
45012;DHT22;63444;48.148;11.542;2022-11-13T03:36:06;6.10;99.90
45012;DHT22;63444;48.148;11.542;2022-11-13T03:38:32;6.20;99.90
45012;DHT22;63444;48.148;11.542;2022-11-13T03:40:58;6.10;99.90
45012;DHT22;63444;48.148;11.542;2022-11-13T03:43:24;6.10;99.90
45012;DHT22;63444;48.148;11.542;2022-11-13T03:45:50;6.10;99.90
45012;DHT22;63444;48.148;11.542;2022-11-13T03:48:16;6.10;99.90
45012;DHT22;63444;48.148;11.542;2022-11-13T03:50:44;6.00;99.90
45012;DHT22;63444;48.148;11.542;2022-11-13T03:53:12;6.00;99.90
45012;DHT22;63444;48.148;11.542;2022-11-13T03:55:37;6.10;99.90
45012;DHT22;63444;48.148;11.542;2022-11-13T03:58:03;6.00;99.90
45012;DHT22;63444;48.148;11.542;2022-11-13T04:00:29;6.00;99.90
45012;DHT22;63444;48.148;11.542;2022-11-13T04:02:55;6.00;99.90
45012;DHT22;63444;48.148;11.542;2022-11-13T04:05:20;6.00;99.90
45012;DHT22;63444;48.148;11.542;2022-11-13T04:07:46;5.90;99.90
45012;DHT22;63444;48.148;11.542;2022-11-13T04:10:12;5.90;99.90
45012;DHT22;63444;48.148;11.542;2022-11-13T04:12:38;5.90;99.90
45012;DHT22;63444;48.148;11.542;2022-11-13T04:15:05;5.90;99.90
45012;DHT22;63444;48.148;11.542;2022-11-13T04:17:30;5.90;99.90
45012;DHT22;63444;48.148;11.542;2022-11-13T04:19:56;5.90;99.90
45012;DHT22;63444;48.148;11.542;2022-11-13T04:22:21;5.80;99.90
45012;DHT22;63444;48.148;11.542;2022-11-13T04:24:47;5.70;99.90
45012;DHT22;63444;48.148;11.542;2022-11-13T04:27:13;5.70;99.90
45012;DHT22;63444;48.148;11.542;2022-11-13T04:29:39;5.70;99.90
45012;DHT22;63444;48.148;11.542;2022-11-13T04:32:05;5.60;99.90
45012;DHT22;63444;48.148;11.542;2022-11-13T04:34:30;5.60;99.90
45012;DHT22;63444;48.148;11.542;2022-11-13T04:36:56;5.50;99.90
45012;DHT22;63444;48.148;11.542;2022-11-13T04:39:21;5.50;99.90
45012;DHT22;63444;48.148;11.542;2022-11-13T04:41:47;5.50;99.90
45012;DHT22;63444;48.148;11.542;2022-11-13T04:44:31;5.50;99.90
45012;DHT22;63444;48.148;11.542;2022-11-13T04:46:57;5.40;99.90
45012;DHT22;63444;48.148;11.542;2022-11-13T04:49:23;5.30;99.90
45012;DHT22;63444;48.148;11.542;2022-11-13T04:51:48;5.30;99.90
45012;DHT22;63444;48.148;11.542;2022-11-13T04:54:14;5.30;99.90
45012;DHT22;63444;48.148;11.542;2022-11-13T04:56:39;5.30;99.90
45012;DHT22;63444;48.148;11.542;2022-11-13T04:59:06;5.20;99.90
45012;DHT22;63444;48.148;11.542;2022-11-13T05:01:34;5.20;99.90
45012;DHT22;63444;48.148;11.542;2022-11-13T05:04:00;5.20;99.90
45012;DHT22;63444;48.148;11.542;2022-11-13T05:06:25;5.20;99.90
45012;DHT22;63444;48.148;11.542;2022-11-13T05:08:51;5.10;99.90
45012;DHT22;63444;48.148;11.542;2022-11-13T05:11:16;5.10;99.90
45012;DHT22;63444;48.148;11.542;2022-11-13T05:13:42;5.10;99.90
45012;DHT22;63444;48.148;11.542;2022-11-13T05:16:10;5.10;99.90
45012;DHT22;63444;48.148;11.542;2022-11-13T05:18:37;5.10;99.90
45012;DHT22;63444;48.148;11.542;2022-11-13T05:21:04;5.10;99.90
45012;DHT22;63444;48.148;11.542;2022-11-13T05:23:29;5.10;99.90
45012;DHT22;63444;48.148;11.542;2022-11-13T05:26:07;5.10;99.90
45012;DHT22;63444;48.148;11.542;2022-11-13T05:28:33;5.10;99.90
45012;DHT22;63444;48.148;11.542;2022-11-13T05:31:18;5.00;99.90
45012;DHT22;63444;48.148;11.542;2022-11-13T05:33:43;5.10;99.90
45012;DHT22;63444;48.148;11.542;2022-11-13T05:36:11;5.00;99.90
45012;DHT22;63444;48.148;11.542;2022-11-13T05:38:37;5.10;99.90
45012;DHT22;63444;48.148;11.542;2022-11-13T05:41:05;5.00;99.90
45012;DHT22;63444;48.148;11.542;2022-11-13T05:43:31;5.00;99.90
45012;DHT22;63444;48.148;11.542;2022-11-13T05:48:26;4.80;99.90
45012;DHT22;63444;48.148;11.542;2022-11-13T05:50:51;4.90;99.90
45012;DHT22;63444;48.148;11.542;2022-11-13T05:53:18;4.90;99.90
45012;DHT22;63444;48.148;11.542;2022-11-13T05:55:44;4.90;99.90
45012;DHT22;63444;48.148;11.542;2022-11-13T05:58:09;4.90;99.90
45012;DHT22;63444;48.148;11.542;2022-11-13T06:00:37;4.80;99.90
45012;DHT22;63444;48.148;11.542;2022-11-13T06:03:02;4.80;99.90
45012;DHT22;63444;48.148;11.542;2022-11-13T06:05:28;4.90;99.90
45012;DHT22;63444;48.148;11.542;2022-11-13T06:07:54;4.80;99.90
45012;DHT22;63444;48.148;11.542;2022-11-13T06:10:19;4.80;99.90
45012;DHT22;63444;48.148;11.542;2022-11-13T06:12:45;4.80;99.90
45012;DHT22;63444;48.148;11.542;2022-11-13T06:15:10;4.90;99.90
45012;DHT22;63444;48.148;11.542;2022-11-13T06:17:36;4.90;99.90
45012;DHT22;63444;48.148;11.542;2022-11-13T06:20:02;4.90;99.90
45012;DHT22;63444;48.148;11.542;2022-11-13T06:22:27;4.90;99.90
45012;DHT22;63444;48.148;11.542;2022-11-13T06:24:53;5.00;99.90
45012;DHT22;63444;48.148;11.542;2022-11-13T06:27:18;4.90;99.90
45012;DHT22;63444;48.148;11.542;2022-11-13T06:29:44;4.90;99.90
45012;DHT22;63444;48.148;11.542;2022-11-13T06:32:11;4.90;99.90
45012;DHT22;63444;48.148;11.542;2022-11-13T06:34:37;4.90;99.90
45012;DHT22;63444;48.148;11.542;2022-11-13T06:37:03;4.90;99.90
45012;DHT22;63444;48.148;11.542;2022-11-13T06:39:28;4.90;99.90
45012;DHT22;63444;48.148;11.542;2022-11-13T06:41:54;4.90;99.90
45012;DHT22;63444;48.148;11.542;2022-11-13T06:44:19;4.90;99.90
45012;DHT22;63444;48.148;11.542;2022-11-13T06:46:45;4.90;99.90
45012;DHT22;63444;48.148;11.542;2022-11-13T06:49:10;4.90;99.90
45012;DHT22;63444;48.148;11.542;2022-11-13T06:51:37;4.90;99.90
45012;DHT22;63444;48.148;11.542;2022-11-13T06:54:03;4.90;99.90
45012;DHT22;63444;48.148;11.542;2022-11-13T06:56:29;4.90;99.90
45012;DHT22;63444;48.148;11.542;2022-11-13T06:58:55;4.90;99.90
45012;DHT22;63444;48.148;11.542;2022-11-13T07:01:23;4.90;99.90
45012;DHT22;63444;48.148;11.542;2022-11-13T07:03:49;4.90;99.90
45012;DHT22;63444;48.148;11.542;2022-11-13T07:06:20;4.90;99.90
45012;DHT22;63444;48.148;11.542;2022-11-13T07:08:46;4.90;99.90
45012;DHT22;63444;48.148;11.542;2022-11-13T07:11:18;4.90;99.90
45012;DHT22;63444;48.148;11.542;2022-11-13T07:13:46;4.90;99.90
45012;DHT22;63444;48.148;11.542;2022-11-13T07:16:14;4.90;99.90
45012;DHT22;63444;48.148;11.542;2022-11-13T07:18:40;5.00;99.90
45012;DHT22;63444;48.148;11.542;2022-11-13T07:21:09;5.00;99.90
45012;DHT22;63444;48.148;11.542;2022-11-13T07:23:35;5.10;99.90
45012;DHT22;63444;48.148;11.542;2022-11-13T07:26:04;5.20;99.90
45012;DHT22;63444;48.148;11.542;2022-11-13T07:28:29;5.30;99.90
45012;DHT22;63444;48.148;11.542;2022-11-13T07:30:58;5.40;99.90
45012;DHT22;63444;48.148;11.542;2022-11-13T07:33:24;5.40;99.90
45012;DHT22;63444;48.148;11.542;2022-11-13T07:35:52;5.40;99.90
45012;DHT22;63444;48.148;11.542;2022-11-13T07:38:20;5.50;99.90
45012;DHT22;63444;48.148;11.542;2022-11-13T07:40:46;5.50;99.90
45012;DHT22;63444;48.148;11.542;2022-11-13T07:43:12;5.50;99.90
45012;DHT22;63444;48.148;11.542;2022-11-13T07:45:38;5.60;99.90
45012;DHT22;63444;48.148;11.542;2022-11-13T07:48:04;5.60;99.90
45012;DHT22;63444;48.148;11.542;2022-11-13T07:50:33;5.50;99.90
45012;DHT22;63444;48.148;11.542;2022-11-13T07:53:01;5.50;99.90
45012;DHT22;63444;48.148;11.542;2022-11-13T07:55:29;5.50;99.90
45012;DHT22;63444;48.148;11.542;2022-11-13T07:57:58;5.40;99.90
45012;DHT22;63444;48.148;11.542;2022-11-13T08:00:29;5.50;99.90
45012;DHT22;63444;48.148;11.542;2022-11-13T08:02:55;5.50;99.90
45012;DHT22;63444;48.148;11.542;2022-11-13T08:05:21;5.40;99.90
45012;DHT22;63444;48.148;11.542;2022-11-13T08:07:50;5.30;99.90
45012;DHT22;63444;48.148;11.542;2022-11-13T08:10:17;5.30;99.90
45012;DHT22;63444;48.148;11.542;2022-11-13T08:12:44;5.30;99.90
45012;DHT22;63444;48.148;11.542;2022-11-13T08:15:10;5.20;99.90
45012;DHT22;63444;48.148;11.542;2022-11-13T08:17:36;5.20;99.90
45012;DHT22;63444;48.148;11.542;2022-11-13T08:20:02;5.30;99.90
45012;DHT22;63444;48.148;11.542;2022-11-13T08:22:29;5.40;99.90
45012;DHT22;63444;48.148;11.542;2022-11-13T08:24:55;5.50;99.90
45012;DHT22;63444;48.148;11.542;2022-11-13T08:27:21;5.60;99.90
45012;DHT22;63444;48.148;11.542;2022-11-13T08:29:48;5.70;99.90
45012;DHT22;63444;48.148;11.542;2022-11-13T08:32:15;5.80;99.90
45012;DHT22;63444;48.148;11.542;2022-11-13T08:34:41;5.90;99.90
45012;DHT22;63444;48.148;11.542;2022-11-13T08:37:07;6.00;99.90
45012;DHT22;63444;48.148;11.542;2022-11-13T08:39:33;6.10;99.90
45012;DHT22;63444;48.148;11.542;2022-11-13T08:42:00;6.10;99.90
45012;DHT22;63444;48.148;11.542;2022-11-13T08:44:26;6.20;99.90
45012;DHT22;63444;48.148;11.542;2022-11-13T08:46:52;6.30;99.90
45012;DHT22;63444;48.148;11.542;2022-11-13T08:49:17;6.40;99.90
45012;DHT22;63444;48.148;11.542;2022-11-13T08:51:43;6.40;99.90
45012;DHT22;63444;48.148;11.542;2022-11-13T08:54:08;6.50;99.90
45012;DHT22;63444;48.148;11.542;2022-11-13T08:56:34;6.60;99.90
45012;DHT22;63444;48.148;11.542;2022-11-13T08:59:00;6.70;99.90
45012;DHT22;63444;48.148;11.542;2022-11-13T09:01:27;6.70;99.90
45012;DHT22;63444;48.148;11.542;2022-11-13T09:03:52;6.80;99.90
45012;DHT22;63444;48.148;11.542;2022-11-13T09:06:18;6.90;99.90
45012;DHT22;63444;48.148;11.542;2022-11-13T09:08:44;7.00;99.90
45012;DHT22;63444;48.148;11.542;2022-11-13T09:11:09;7.00;99.90
45012;DHT22;63444;48.148;11.542;2022-11-13T09:13:35;7.10;99.90
45012;DHT22;63444;48.148;11.542;2022-11-13T09:16:02;7.20;99.90
45012;DHT22;63444;48.148;11.542;2022-11-13T09:18:28;7.30;99.90
45012;DHT22;63444;48.148;11.542;2022-11-13T09:20:58;7.40;99.90
45012;DHT22;63444;48.148;11.542;2022-11-13T09:23:25;7.40;99.90
45012;DHT22;63444;48.148;11.542;2022-11-13T09:25:50;7.40;99.90
45012;DHT22;63444;48.148;11.542;2022-11-13T09:28:16;7.40;99.90
45012;DHT22;63444;48.148;11.542;2022-11-13T09:30:42;7.50;99.90
45012;DHT22;63444;48.148;11.542;2022-11-13T09:33:09;7.50;99.90
45012;DHT22;63444;48.148;11.542;2022-11-13T09:35:37;7.60;99.90
45012;DHT22;63444;48.148;11.542;2022-11-13T09:38:11;7.70;99.90
45012;DHT22;63444;48.148;11.542;2022-11-13T09:43:28;8.20;99.90
45012;DHT22;63444;48.148;11.542;2022-11-13T09:46:05;8.80;99.90
45012;DHT22;63444;48.148;11.542;2022-11-13T09:48:39;9.00;99.90
45012;DHT22;63444;48.148;11.542;2022-11-13T09:51:14;9.00;99.90
45012;DHT22;63444;48.148;11.542;2022-11-13T09:53:43;9.00;99.90
45012;DHT22;63444;48.148;11.542;2022-11-13T09:56:26;9.40;99.90
45012;DHT22;63444;48.148;11.542;2022-11-13T10:01:44;10.20;99.90
45012;DHT22;63444;48.148;11.542;2022-11-13T10:04:13;10.60;99.90
45012;DHT22;63444;48.148;11.542;2022-11-13T10:10:00;10.80;99.90
45012;DHT22;63444;48.148;11.542;2022-11-13T10:12:30;10.70;99.90
45012;DHT22;63444;48.148;11.542;2022-11-13T10:15:00;10.90;99.90
45012;DHT22;63444;48.148;11.542;2022-11-13T10:17:38;11.30;99.90
45012;DHT22;63444;48.148;11.542;2022-11-13T10:20:15;11.80;99.90
45012;DHT22;63444;48.148;11.542;2022-11-13T10:22:48;11.90;99.90
45012;DHT22;63444;48.148;11.542;2022-11-13T10:25:17;12.10;99.90
45012;DHT22;63444;48.148;11.542;2022-11-13T10:28:09;12.60;99.90
45012;DHT22;63444;48.148;11.542;2022-11-13T10:30:29;13.10;99.90
45012;DHT22;63444;48.148;11.542;2022-11-13T10:33:03;13.60;99.90
45012;DHT22;63444;48.148;11.542;2022-11-13T10:35:43;13.80;99.90
45012;DHT22;63444;48.148;11.542;2022-11-13T10:38:43;13.80;99.90
45012;DHT22;63444;48.148;11.542;2022-11-13T10:41:19;13.80;99.90
45012;DHT22;63444;48.148;11.542;2022-11-13T10:44:00;13.90;99.90
45012;DHT22;63444;48.148;11.542;2022-11-13T10:46:28;13.90;99.90
45012;DHT22;63444;48.148;11.542;2022-11-13T10:48:55;13.80;99.90
45012;DHT22;63444;48.148;11.542;2022-11-13T10:51:25;13.80;99.90
45012;DHT22;63444;48.148;11.542;2022-11-13T10:53:52;13.80;99.90
45012;DHT22;63444;48.148;11.542;2022-11-13T10:56:27;14.00;99.90
45012;DHT22;63444;48.148;11.542;2022-11-13T11:01:28;14.00;99.90
45012;DHT22;63444;48.148;11.542;2022-11-13T11:03:54;14.00;99.90
45012;DHT22;63444;48.148;11.542;2022-11-13T11:06:31;14.00;99.90
45012;DHT22;63444;48.148;11.542;2022-11-13T11:09:27;14.10;99.70
45012;DHT22;63444;48.148;11.542;2022-11-13T11:12:20;14.00;99.60
45012;DHT22;63444;48.148;11.542;2022-11-13T11:17:47;13.70;99.50
45012;DHT22;63444;48.148;11.542;2022-11-13T11:20:34;13.70;99.90
45012;DHT22;63444;48.148;11.542;2022-11-13T11:23:22;13.70;99.90
45012;DHT22;63444;48.148;11.542;2022-11-13T11:26:21;13.70;99.90
45012;DHT22;63444;48.148;11.542;2022-11-13T11:28:52;13.90;99.90
45012;DHT22;63444;48.148;11.542;2022-11-13T11:34:30;14.00;99.90
45012;DHT22;63444;48.148;11.542;2022-11-13T11:37:15;14.00;99.90
45012;DHT22;63444;48.148;11.542;2022-11-13T11:40:02;14.10;99.90
45012;DHT22;63444;48.148;11.542;2022-11-13T11:42:38;14.20;99.90
45012;DHT22;63444;48.148;11.542;2022-11-13T11:47:46;14.30;99.90
45012;DHT22;63444;48.148;11.542;2022-11-13T11:50:17;14.40;99.80
45012;DHT22;63444;48.148;11.542;2022-11-13T11:58:00;14.60;99.60
45012;DHT22;63444;48.148;11.542;2022-11-13T12:00:31;14.80;99.50
45012;DHT22;63444;48.148;11.542;2022-11-13T12:03:38;15.00;99.40
45012;DHT22;63444;48.148;11.542;2022-11-13T12:11:31;16.00;98.60
45012;DHT22;63444;48.148;11.542;2022-11-13T12:19:44;19.10;95.70
45012;DHT22;63444;48.148;11.542;2022-11-13T12:22:21;20.50;93.90
45012;DHT22;63444;48.148;11.542;2022-11-13T12:27:37;23.00;90.50
45012;DHT22;63444;48.148;11.542;2022-11-13T12:30:17;24.00;87.60
45012;DHT22;63444;48.148;11.542;2022-11-13T12:33:06;24.80;84.70
45012;DHT22;63444;48.148;11.542;2022-11-13T12:35:32;25.00;82.40
45012;DHT22;63444;48.148;11.542;2022-11-13T12:40:58;25.10;78.80
45012;DHT22;63444;48.148;11.542;2022-11-13T12:45:57;24.50;78.40
45012;DHT22;63444;48.148;11.542;2022-11-13T12:51:07;23.60;78.20
45012;DHT22;63444;48.148;11.542;2022-11-13T12:53:49;23.20;79.10
45012;DHT22;63444;48.148;11.542;2022-11-13T12:56:30;22.70;79.00
45012;DHT22;63444;48.148;11.542;2022-11-13T13:10:47;17.90;89.70
45012;DHT22;63444;48.148;11.542;2022-11-13T13:13:26;17.00;90.90
45012;DHT22;63444;48.148;11.542;2022-11-13T13:15:58;16.30;92.20
45012;DHT22;63444;48.148;11.542;2022-11-13T13:18:30;15.80;93.10
45012;DHT22;63444;48.148;11.542;2022-11-13T13:21:11;15.40;93.80
45012;DHT22;63444;48.148;11.542;2022-11-13T13:23:44;15.20;94.50
45012;DHT22;63444;48.148;11.542;2022-11-13T13:28:55;14.70;95.70
45012;DHT22;63444;48.148;11.542;2022-11-13T13:34:39;14.30;96.80
45012;DHT22;63444;48.148;11.542;2022-11-13T13:37:38;14.00;97.60
45012;DHT22;63444;48.148;11.542;2022-11-13T13:46:06;13.50;99.20
45012;DHT22;63444;48.148;11.542;2022-11-13T13:48:37;13.40;99.60
45012;DHT22;63444;48.148;11.542;2022-11-13T13:51:27;13.30;99.90
45012;DHT22;63444;48.148;11.542;2022-11-13T13:53:55;13.30;99.90
45012;DHT22;63444;48.148;11.542;2022-11-13T13:56:23;13.30;99.90
45012;DHT22;63444;48.148;11.542;2022-11-13T13:58:49;13.30;99.90
45012;DHT22;63444;48.148;11.542;2022-11-13T14:01:32;13.20;99.90
45012;DHT22;63444;48.148;11.542;2022-11-13T14:04:16;13.20;99.90
45012;DHT22;63444;48.148;11.542;2022-11-13T14:06:50;13.10;99.90
45012;DHT22;63444;48.148;11.542;2022-11-13T14:09:21;13.10;99.90
45012;DHT22;63444;48.148;11.542;2022-11-13T14:11:54;13.10;99.90
45012;DHT22;63444;48.148;11.542;2022-11-13T14:14:22;13.10;99.90
45012;DHT22;63444;48.148;11.542;2022-11-13T14:16:49;13.00;99.90
45012;DHT22;63444;48.148;11.542;2022-11-13T14:19:15;13.00;99.90
45012;DHT22;63444;48.148;11.542;2022-11-13T14:21:43;13.00;99.90
45012;DHT22;63444;48.148;11.542;2022-11-13T14:24:20;12.90;99.90
45012;DHT22;63444;48.148;11.542;2022-11-13T14:26:47;12.90;99.90
45012;DHT22;63444;48.148;11.542;2022-11-13T14:29:51;12.80;99.90
45012;DHT22;63444;48.148;11.542;2022-11-13T14:32:27;12.80;99.90
45012;DHT22;63444;48.148;11.542;2022-11-13T14:35:01;12.80;99.90
45012;DHT22;63444;48.148;11.542;2022-11-13T14:37:36;12.80;99.90
45012;DHT22;63444;48.148;11.542;2022-11-13T14:40:29;12.70;99.90
45012;DHT22;63444;48.148;11.542;2022-11-13T14:43:02;12.70;99.90
45012;DHT22;63444;48.148;11.542;2022-11-13T14:45:32;12.70;99.90
45012;DHT22;63444;48.148;11.542;2022-11-13T14:50:55;12.60;99.90
45012;DHT22;63444;48.148;11.542;2022-11-13T14:53:35;12.60;99.90
45012;DHT22;63444;48.148;11.542;2022-11-13T14:56:05;12.60;99.90
45012;DHT22;63444;48.148;11.542;2022-11-13T14:58:37;12.50;99.90
45012;DHT22;63444;48.148;11.542;2022-11-13T15:01:23;12.50;99.90
45012;DHT22;63444;48.148;11.542;2022-11-13T15:03:50;12.40;99.90
45012;DHT22;63444;48.148;11.542;2022-11-13T15:06:23;12.40;99.90
45012;DHT22;63444;48.148;11.542;2022-11-13T15:08:53;12.40;99.90
45012;DHT22;63444;48.148;11.542;2022-11-13T15:11:22;12.40;99.90
45012;DHT22;63444;48.148;11.542;2022-11-13T15:13:48;12.40;99.90
45012;DHT22;63444;48.148;11.542;2022-11-13T15:16:20;12.30;99.90
45012;DHT22;63444;48.148;11.542;2022-11-13T15:19:00;12.30;99.90
45012;DHT22;63444;48.148;11.542;2022-11-13T15:21:27;12.20;99.90
45012;DHT22;63444;48.148;11.542;2022-11-13T15:23:53;12.20;99.90
45012;DHT22;63444;48.148;11.542;2022-11-13T15:26:19;12.20;99.90
45012;DHT22;63444;48.148;11.542;2022-11-13T15:28:44;12.10;99.90
45012;DHT22;63444;48.148;11.542;2022-11-13T15:31:23;12.10;99.90
45012;DHT22;63444;48.148;11.542;2022-11-13T15:33:51;12.10;99.90
45012;DHT22;63444;48.148;11.542;2022-11-13T15:36:17;12.00;99.90
45012;DHT22;63444;48.148;11.542;2022-11-13T15:38:43;12.00;99.90
45012;DHT22;63444;48.148;11.542;2022-11-13T15:41:19;11.90;99.90
45012;DHT22;63444;48.148;11.542;2022-11-13T15:43:47;11.90;99.90
45012;DHT22;63444;48.148;11.542;2022-11-13T15:46:15;11.80;99.90
45012;DHT22;63444;48.148;11.542;2022-11-13T15:48:44;11.80;99.90
45012;DHT22;63444;48.148;11.542;2022-11-13T15:56:39;11.70;99.90
45012;DHT22;63444;48.148;11.542;2022-11-13T15:59:08;11.70;99.90
45012;DHT22;63444;48.148;11.542;2022-11-13T16:01:36;11.60;99.90
45012;DHT22;63444;48.148;11.542;2022-11-13T16:04:02;11.60;99.90
45012;DHT22;63444;48.148;11.542;2022-11-13T16:06:30;11.60;99.90
45012;DHT22;63444;48.148;11.542;2022-11-13T16:08:59;11.50;99.90
45012;DHT22;63444;48.148;11.542;2022-11-13T16:11:25;11.50;99.90
45012;DHT22;63444;48.148;11.542;2022-11-13T16:13:51;11.40;99.90
45012;DHT22;63444;48.148;11.542;2022-11-13T16:16:19;11.40;99.90
45012;DHT22;63444;48.148;11.542;2022-11-13T16:18:47;11.30;99.90
45012;DHT22;63444;48.148;11.542;2022-11-13T16:21:16;11.30;99.90
45012;DHT22;63444;48.148;11.542;2022-11-13T16:23:42;11.30;99.90
45012;DHT22;63444;48.148;11.542;2022-11-13T16:26:13;11.30;99.90
45012;DHT22;63444;48.148;11.542;2022-11-13T16:28:40;11.20;99.90
45012;DHT22;63444;48.148;11.542;2022-11-13T16:31:06;11.20;99.90
45012;DHT22;63444;48.148;11.542;2022-11-13T16:33:31;11.10;99.90
45012;DHT22;63444;48.148;11.542;2022-11-13T16:35:57;11.10;99.90
45012;DHT22;63444;48.148;11.542;2022-11-13T16:38:22;11.10;99.90
45012;DHT22;63444;48.148;11.542;2022-11-13T16:40:48;11.00;99.90
45012;DHT22;63444;48.148;11.542;2022-11-13T16:43:13;11.00;99.90
45012;DHT22;63444;48.148;11.542;2022-11-13T16:45:39;10.90;99.90
45012;DHT22;63444;48.148;11.542;2022-11-13T16:48:11;10.90;99.90
45012;DHT22;63444;48.148;11.542;2022-11-13T16:50:37;10.90;99.90
45012;DHT22;63444;48.148;11.542;2022-11-13T16:53:04;10.80;99.90
45012;DHT22;63444;48.148;11.542;2022-11-13T16:55:30;10.80;99.90
45012;DHT22;63444;48.148;11.542;2022-11-13T16:57:55;10.70;99.90
45012;DHT22;63444;48.148;11.542;2022-11-13T17:00:21;10.70;99.90
45012;DHT22;63444;48.148;11.542;2022-11-13T17:02:50;10.70;99.90
45012;DHT22;63444;48.148;11.542;2022-11-13T17:05:17;10.60;99.90
45012;DHT22;63444;48.148;11.542;2022-11-13T17:07:43;10.60;99.90